Nome の空港の天気 - METARとTAF

Nome, Nome Airport ( PAOM / OME ) - アメリカ アラスカ州Nome
飛行場実況気象(Metar)
観測時間06/25 04:53 AKDT (06/25 12:53 UTC)
風向・風速北西 2m/s
視程10km以上
天気現象
なし
気温5.6℃
湿度85%
気圧1012.7hPa
METARPAOM 251253Z AUTO 31004KT 10SM CLR 06/03 A2990 RMK AO2 SLP127 T00560033 TSNO
過去の天気等 Google飛行場航空写真 Wunderground天気予報

過去48時間のMETAR

飛行場予報(TAF)
発表時間: 6/25 03:20 AKDT (6/25 11:20 UTC)
予報対象時間: 25日4時 AKDT ~ 26日4時 AKDT
風向・風速北 5m/s
視程10km以上
全天の4割程度の雲 雲底高度 1220m
全天の4割程度の雲 雲底高度 3050m
25日12時 AKDT から
風向・風速西 4m/s
視程10km以上
全天の4割程度の雲 雲底高度 1520m
全天の8割程度の雲 雲底高度 3050m
25日22時 AKDT から
風向・風速北東 3m/s
視程10km以上
全天の8割程度の雲 雲底高度 7620m
PAOM 251120Z 2512/2612 36010KT P6SM SCT040 SCT100
FM252000 26007KT P6SM SCT050 BKN100
FM260600 04006KT P6SM BKN250